Time;durP1;ratioP1;P1;durP2;ratioP2;P2;SDS_P1;SDS_P2;PMS_P1;PMS_P2;Temp;Humidity;BMP_temperature;BMP_pressure;BME280_temperature;BME280_humidity;BME280_pressure;Samples;Min_cycle;Max_cycle;Signal;HPM_P1;HPM_P2
2021/03/12 00:00:19;;;;;;;26.02;7.30;;;8.00;91.50;;;;;;4993969;28;20125;-70
2021/03/12 00:02:45;;;;;;;12.93;4.25;;;8.00;91.30;;;;;;4993853;28;20033;-70
2021/03/12 00:05:13;;;;;;;16.48;3.45;;;8.00;91.10;;;;;;4992728;28;20018;-70
2021/03/12 00:07:39;;;;;;;14.63;5.00;;;8.00;91.00;;;;;;4990586;28;20023;-70
2021/03/12 00:10:12;;;;;;;24.85;6.07;;;8.00;90.80;;;;;;4980888;28;20046;-70
2021/03/12 00:12:39;;;;;;;14.77;3.22;;;8.00;90.70;;;;;;4993672;28;20038;-71
2021/03/12 00:15:15;;;;;;;19.90;5.60;;;8.00;90.70;;;;;;4993851;28;20059;-71
2021/03/12 00:17:42;;;;;;;16.13;7.03;;;8.00;90.70;;;;;;4993629;28;20028;-71
2021/03/12 00:20:30;;;;;;;17.45;6.07;;;8.00;90.80;;;;;;4993993;28;20061;-71
2021/03/12 00:22:55;;;;;;;14.25;7.32;;;8.00;90.50;;;;;;4993500;28;20557;-71
2021/03/12 00:25:29;;;;;;;10.75;2.72;;;8.00;90.30;;;;;;4993694;28;20022;-71
2021/03/12 00:27:54;;;;;;;12.20;3.00;;;8.00;90.30;;;;;;4993838;28;20065;-71
2021/03/12 00:30:21;;;;;;;14.30;4.82;;;8.00;90.30;;;;;;4993154;28;20057;-71
2021/03/12 00:32:46;;;;;;;13.07;4.88;;;8.00;90.20;;;;;;5008777;28;20035;-71
2021/03/12 00:35:12;;;;;;;15.88;5.13;;;8.00;90.10;;;;;;4993329;28;20089;-70
2021/03/12 00:37:38;;;;;;;13.68;4.10;;;7.90;90.10;;;;;;4993180;28;20029;-71
2021/03/12 00:40:35;;;;;;;15.30;4.60;;;7.90;90.00;;;;;;4993789;28;20567;-71
2021/03/12 00:43:01;;;;;;;10.75;2.45;;;8.00;89.90;;;;;;4981395;28;20034;-71
2021/03/12 00:45:33;;;;;;;6.75;2.45;;;7.90;89.70;;;;;;5007907;28;20092;-71
2021/03/12 00:47:58;;;;;;;12.05;2.65;;;7.90;89.60;;;;;;4993476;28;20014;-71
2021/03/12 00:50:28;;;;;;;13.55;3.38;;;7.90;89.50;;;;;;4993016;28;20034;-71
2021/03/12 00:52:54;;;;;;;11.65;3.15;;;7.90;89.50;;;;;;4992847;28;20088;-71
2021/03/12 00:55:20;;;;;;;10.88;2.58;;;7.90;89.40;;;;;;4993033;28;20045;-71
2021/03/12 00:57:45;;;;;;;7.90;2.53;;;7.90;89.50;;;;;;5008417;28;20487;-71
2021/03/12 01:00:12;;;;;;;12.82;3.90;;;7.90;89.40;;;;;;4992707;28;20026;-71
2021/03/12 01:02:37;;;;;;;19.45;7.20;;;7.90;89.50;;;;;;4993104;28;20444;-71
2021/03/12 01:05:05;;;;;;;14.55;4.00;;;7.90;89.40;;;;;;4992882;28;20058;-70
2021/03/12 01:07:31;;;;;;;11.38;2.72;;;7.90;89.20;;;;;;4992870;28;20019;-71
2021/03/12 01:09:56;;;;;;;10.18;2.83;;;7.90;89.30;;;;;;4993098;28;20072;-71
2021/03/12 01:12:22;;;;;;;15.80;5.18;;;7.90;89.20;;;;;;4992328;28;20030;-71
2021/03/12 01:14:48;;;;;;;11.00;2.88;;;7.90;89.20;;;;;;5008019;28;20129;-71
2021/03/12 01:17:14;;;;;;;12.93;7.30;;;7.90;89.30;;;;;;4992510;28;20543;-71
2021/03/12 01:19:39;;;;;;;10.38;2.83;;;7.90;89.30;;;;;;5007716;28;20081;-71
2021/03/12 01:22:05;;;;;;;9.13;2.45;;;7.90;89.20;;;;;;4993173;28;20361;-69
2021/03/12 01:24:30;;;;;;;7.57;2.20;;;7.90;89.10;;;;;;4992521;28;20030;-70
2021/03/12 01:26:58;;;;;;;13.82;3.40;;;7.80;89.20;;;;;;4992489;28;20030;-70
2021/03/12 01:29:24;;;;;;;12.05;3.25;;;7.80;89.30;;;;;;4992681;28;20029;-70
2021/03/12 01:31:50;;;;;;;19.75;11.00;;;7.80;89.30;;;;;;4993013;28;20034;-70
2021/03/12 01:34:15;;;;;;;21.42;6.20;;;7.80;89.30;;;;;;4991002;28;20033;-70
2021/03/12 01:36:41;;;;;;;11.10;3.22;;;7.70;89.40;;;;;;4992956;28;20025;-70
2021/03/12 01:39:06;;;;;;;12.80;7.38;;;7.80;89.60;;;;;;5007967;28;20030;-70
2021/03/12 01:41:32;;;;;;;12.07;3.05;;;7.70;89.40;;;;;;4991836;28;20022;-70
2021/03/12 01:43:58;;;;;;;10.98;3.42;;;7.80;89.50;;;;;;4992788;28;20044;-71
2021/03/12 01:46:23;;;;;;;10.73;2.70;;;7.80;89.60;;;;;;4992463;28;20022;-70
2021/03/12 01:48:49;;;;;;;24.55;9.88;;;7.80;89.50;;;;;;4992293;28;20517;-70
2021/03/12 01:51:15;;;;;;;10.60;3.47;;;7.80;89.30;;;;;;4992403;28;20097;-70
2021/03/12 01:53:41;;;;;;;11.95;5.00;;;7.80;89.30;;;;;;4992579;28;20471;-70
2021/03/12 01:56:07;;;;;;;20.05;5.65;;;7.70;89.30;;;;;;4994549;28;20483;-70
2021/03/12 01:58:33;;;;;;;13.85;3.13;;;7.70;89.30;;;;;;4996346;28;20077;-70
2021/03/12 02:00:59;;;;;;;11.73;3.35;;;7.70;89.20;;;;;;4996734;28;20034;-71
2021/03/12 02:03:30;;;;;;;10.00;3.05;;;7.70;89.10;;;;;;5010743;28;20029;-70
2021/03/12 02:05:56;;;;;;;16.13;7.18;;;7.70;89.10;;;;;;4996519;28;20505;-71
2021/03/12 02:08:22;;;;;;;15.27;2.85;;;7.70;89.10;;;;;;4995881;28;20022;-71
2021/03/12 02:10:49;;;;;;;11.88;3.60;;;7.70;89.30;;;;;;4996563;28;20109;-71
2021/03/12 02:13:47;;;;;;;18.00;9.32;;;7.70;89.20;;;;;;4995938;28;20022;-70
2021/03/12 02:16:36;;;;;;;15.73;3.38;;;7.70;89.30;;;;;;4995692;28;20047;-69
2021/03/12 02:19:27;;;;;;;15.52;2.75;;;7.60;89.30;;;;;;4995138;28;20048;-70
2021/03/12 02:21:56;;;;;;;9.10;2.70;;;7.60;89.30;;;;;;4996532;28;20026;-70
2021/03/12 02:24:39;;;;;;;12.23;3.05;;;7.60;89.40;;;;;;4995580;28;20034;-70
2021/03/12 02:27:10;;;;;;;12.68;3.40;;;7.60;89.50;;;;;;4996251;28;20493;-70
2021/03/12 02:29:41;;;;;;;8.25;2.70;;;7.70;89.60;;;;;;4996096;28;20455;-70
2021/03/12 02:32:09;;;;;;;14.55;3.47;;;7.60;89.40;;;;;;4995934;28;20121;-71
2021/03/12 02:34:37;;;;;;;15.10;3.90;;;7.60;89.50;;;;;;4996115;28;20033;-71
2021/03/12 02:37:06;;;;;;;12.23;3.33;;;7.60;89.50;;;;;;5010738;28;20033;-70
2021/03/12 02:39:35;;;;;;;13.27;2.95;;;7.60;89.50;;;;;;4995702;28;20036;-70
2021/03/12 02:42:02;;;;;;;11.57;5.40;;;7.60;89.60;;;;;;4995627;28;20014;-70
2021/03/12 02:44:31;;;;;;;14.85;4.03;;;7.60;89.70;;;;;;4995252;28;20026;-70
2021/03/12 02:47:07;;;;;;;12.07;3.22;;;7.60;89.80;;;;;;4995946;28;20030;-71
2021/03/12 02:49:34;;;;;;;11.93;3.08;;;7.50;89.50;;;;;;4995566;28;20030;-70
2021/03/12 02:52:00;;;;;;;16.88;3.50;;;7.50;89.60;;;;;;4995175;28;20038;-69
2021/03/12 02:54:26;;;;;;;12.27;4.00;;;7.50;89.70;;;;;;4995433;28;20550;-69
2021/03/12 02:56:52;;;;;;;17.85;3.58;;;7.50;89.90;;;;;;4995775;28;20029;-70
2021/03/12 02:59:19;;;;;;;12.70;3.22;;;7.50;89.80;;;;;;4994921;28;20386;-70
2021/03/12 03:01:51;;;;;;;29.40;7.22;;;7.50;89.80;;;;;;5010272;28;20033;-70
2021/03/12 03:04:19;;;;;;;10.38;3.33;;;7.50;89.70;;;;;;5010139;28;20045;-70
2021/03/12 03:06:46;;;;;;;16.70;3.97;;;7.50;89.60;;;;;;4993935;28;20022;-70
2021/03/12 03:09:16;;;;;;;9.68;2.80;;;7.40;89.50;;;;;;4995013;28;20023;-70
2021/03/12 03:11:43;;;;;;;15.02;4.60;;;7.40;90.00;;;;;;4994863;28;20450;-69
2021/03/12 03:14:10;;;;;;;11.48;3.10;;;7.40;89.70;;;;;;4994993;28;20032;-70
2021/03/12 03:16:37;;;;;;;14.73;2.80;;;7.40;89.70;;;;;;5010306;28;20031;-71
2021/03/12 03:19:06;;;;;;;14.75;2.78;;;7.40;89.60;;;;;;4994825;28;20387;-70
2021/03/12 03:21:32;;;;;;;16.48;3.35;;;7.50;89.60;;;;;;4994941;28;20114;-69
2021/03/12 03:23:57;;;;;;;17.55;4.90;;;7.50;89.60;;;;;;4995144;28;20102;-69
2021/03/12 03:26:23;;;;;;;12.60;3.35;;;7.40;89.50;;;;;;4994430;28;20023;-69
2021/03/12 03:28:52;;;;;;;13.88;3.13;;;7.30;89.40;;;;;;4995175;28;20073;-71
2021/03/12 03:31:19;;;;;;;16.50;3.63;;;7.30;89.30;;;;;;4994363;28;20038;-70
2021/03/12 03:33:44;;;;;;;16.50;4.97;;;7.30;89.50;;;;;;4994418;28;20471;-69
2021/03/12 03:36:10;;;;;;;13.27;3.28;;;7.30;89.70;;;;;;4994648;28;20033;-69
2021/03/12 03:38:36;;;;;;;13.70;2.60;;;7.30;89.70;;;;;;4994760;28;20034;-70
2021/03/12 03:41:05;;;;;;;23.40;11.15;;;7.30;89.60;;;;;;4994703;28;20026;-70
2021/03/12 03:43:36;;;;;;;14.13;4.68;;;7.30;89.50;;;;;;4994250;28;20034;-70
2021/03/12 03:46:04;;;;;;;17.83;4.90;;;7.30;89.50;;;;;;5009829;28;20018;-70
2021/03/12 03:48:30;;;;;;;14.60;4.65;;;7.30;89.40;;;;;;4993857;28;20491;-70
2021/03/12 03:50:56;;;;;;;15.20;2.95;;;7.30;89.30;;;;;;4994297;28;20178;-70
2021/03/12 03:53:22;;;;;;;12.95;3.45;;;7.30;89.40;;;;;;4994262;28;20469;-70
2021/03/12 03:55:49;;;;;;;11.77;2.38;;;7.20;89.50;;;;;;4994279;28;20037;-70
2021/03/12 03:58:15;;;;;;;11.70;3.00;;;7.20;89.70;;;;;;5009219;28;20059;-70
2021/03/12 04:00:42;;;;;;;11.93;3.67;;;7.30;89.80;;;;;;4994061;28;20027;-70
2021/03/12 04:03:08;;;;;;;15.48;3.30;;;7.20;89.90;;;;;;4994243;28;20033;-70
2021/03/12 04:05:34;;;;;;;16.50;3.28;;;7.20;89.90;;;;;;4994357;28;20026;-70
2021/03/12 04:08:01;;;;;;;15.18;3.75;;;7.20;90.00;;;;;;4993900;28;20019;-70
2021/03/12 04:10:28;;;;;;;15.50;3.55;;;7.20;90.00;;;;;;4993871;28;20435;-70
2021/03/12 04:12:54;;;;;;;18.17;3.67;;;7.20;90.00;;;;;;4994017;28;20043;-70
2021/03/12 04:15:21;;;;;;;16.88;3.22;;;7.20;90.00;;;;;;5008392;28;20046;-70
2021/03/12 04:17:48;;;;;;;10.25;2.97;;;7.20;90.00;;;;;;5008635;28;20030;-71
2021/03/12 04:20:14;;;;;;;9.00;2.45;;;7.10;90.00;;;;;;4993663;28;20018;-69
2021/03/12 04:22:41;;;;;;;10.10;2.78;;;7.10;90.10;;;;;;5008771;28;20030;-70
2021/03/12 04:25:07;;;;;;;13.27;2.85;;;7.00;90.10;;;;;;5009178;28;20491;-69
2021/03/12 04:27:34;;;;;;;12.18;3.33;;;7.00;90.20;;;;;;4993635;28;20387;-69
2021/03/12 04:30:00;;;;;;;16.92;2.75;;;6.90;90.20;;;;;;4993424;28;20387;-70
2021/03/12 04:32:27;;;;;;;9.73;2.95;;;6.80;90.30;;;;;;4993001;28;20045;-70
2021/03/12 04:34:52;;;;;;;15.27;3.35;;;6.70;90.40;;;;;;5008911;28;20378;-70
2021/03/12 04:37:18;;;;;;;13.40;5.07;;;6.70;90.50;;;;;;4992975;28;20422;-70
2021/03/12 04:39:44;;;;;;;9.88;3.45;;;6.70;90.50;;;;;;4993567;28;20026;-70
2021/03/12 04:42:12;;;;;;;9.40;2.45;;;6.60;90.60;;;;;;4993386;28;20502;-70
2021/03/12 04:44:38;;;;;;;10.80;3.05;;;6.50;90.70;;;;;;5008553;28;20026;-70
2021/03/12 04:47:05;;;;;;;10.05;2.38;;;6.40;90.80;;;;;;4993439;28;20034;-70
2021/03/12 04:49:31;;;;;;;11.73;3.20;;;6.30;90.90;;;;;;5005743;28;20546;-70
2021/03/12 04:51:58;;;;;;;12.90;2.47;;;6.20;91.00;;;;;;5008594;28;20039;-70
2021/03/12 04:54:23;;;;;;;9.48;2.40;;;6.10;91.10;;;;;;4993226;28;20041;-70
2021/03/12 04:56:49;;;;;;;12.27;2.60;;;6.10;91.20;;;;;;4992923;28;20030;-70
2021/03/12 04:59:16;;;;;;;11.02;2.75;;;6.00;91.30;;;;;;4993376;28;20349;-70
2021/03/12 05:01:42;;;;;;;11.82;2.28;;;6.00;91.40;;;;;;4993449;28;20037;-70
2021/03/12 05:04:09;;;;;;;22.02;10.70;;;6.00;91.50;;;;;;4992740;28;20026;-70
2021/03/12 05:06:38;;;;;;;9.18;2.45;;;6.10;91.60;;;;;;4993450;28;20034;-69
2021/03/12 05:09:04;;;;;;;10.32;2.72;;;6.10;91.50;;;;;;4992142;28;20014;-69
2021/03/12 05:11:30;;;;;;;14.75;3.13;;;6.10;91.50;;;;;;4992249;28;20041;-70
2021/03/12 05:13:55;;;;;;;11.82;2.30;;;6.00;91.40;;;;;;4992674;28;20061;-69
2021/03/12 05:16:21;;;;;;;12.15;2.40;;;6.00;91.40;;;;;;4992008;28;20529;-70
2021/03/12 05:18:47;;;;;;;10.73;2.50;;;5.90;91.50;;;;;;4992980;28;20073;-69
2021/03/12 05:21:14;;;;;;;12.82;2.78;;;5.90;91.60;;;;;;4992782;28;20027;-69
2021/03/12 05:23:40;;;;;;;15.02;2.72;;;5.90;91.70;;;;;;4992454;28;20387;-70
2021/03/12 05:26:06;;;;;;;8.68;2.60;;;5.80;91.80;;;;;;4993105;28;20470;-70
2021/03/12 05:28:32;;;;;;;12.73;3.13;;;5.80;91.80;;;;;;4992985;28;20066;-70
2021/03/12 05:30:57;;;;;;;12.38;2.50;;;5.80;91.80;;;;;;4987278;28;20018;-69
2021/03/12 05:33:23;;;;;;;12.77;2.70;;;5.80;91.80;;;;;;4973084;28;20041;-69
2021/03/12 05:35:48;;;;;;;7.78;2.53;;;5.80;91.90;;;;;;4973523;28;20102;-70
2021/03/12 05:38:14;;;;;;;12.80;2.95;;;5.80;92.00;;;;;;4972681;28;20101;-70
2021/03/12 05:40:40;;;;;;;10.15;2.83;;;5.70;92.00;;;;;;4973408;28;20023;-69
2021/03/12 05:43:08;;;;;;;10.65;2.83;;;5.70;92.00;;;;;;4983674;28;20026;-70
2021/03/12 05:45:34;;;;;;;14.20;5.18;;;5.70;92.00;;;;;;4992466;28;20552;-70
2021/03/12 05:48:00;;;;;;;15.02;2.90;;;5.70;92.00;;;;;;4991786;28;20018;-70
2021/03/12 05:50:26;;;;;;;12.23;3.63;;;5.60;92.00;;;;;;4991334;28;20053;-69
2021/03/12 05:52:52;;;;;;;20.42;6.53;;;5.60;92.10;;;;;;4991888;28;20072;-69
2021/03/12 05:55:18;;;;;;;9.90;2.78;;;5.60;92.10;;;;;;4992519;28;20061;-69
2021/03/12 05:57:45;;;;;;;15.82;3.25;;;5.60;92.10;;;;;;4991551;28;20029;-69
2021/03/12 06:00:12;;;;;;;9.48;2.58;;;5.60;92.20;;;;;;4991922;28;20061;-70
2021/03/12 06:02:38;;;;;;;12.70;2.90;;;5.60;92.20;;;;;;4992651;28;20436;-70
2021/03/12 06:05:10;;;;;;;18.33;4.35;;;5.60;92.20;;;;;;4992645;28;20054;-70
2021/03/12 06:07:37;;;;;;;9.63;3.33;;;5.60;92.10;;;;;;4988021;28;20027;-69
2021/03/12 06:10:05;;;;;;;15.95;3.30;;;5.60;92.10;;;;;;4973301;28;20049;-69
2021/03/12 06:12:32;;;;;;;11.02;3.50;;;5.60;92.20;;;;;;4971006;28;20058;-69
2021/03/12 06:14:59;;;;;;;12.20;3.05;;;5.60;92.20;;;;;;4971892;28;20050;-69
2021/03/12 06:17:41;;;;;;;19.52;3.75;;;5.60;92.20;;;;;;4974610;28;20030;-69
2021/03/12 06:20:18;;;;;;;12.13;3.00;;;5.60;92.20;;;;;;4991787;28;20037;-70
2021/03/12 06:22:57;;;;;;;13.23;3.78;;;5.70;92.20;;;;;;4987806;28;20038;-70
2021/03/12 06:25:29;;;;;;;12.20;3.33;;;5.70;92.20;;;;;;4991796;28;20030;-69
2021/03/12 06:27:56;;;;;;;;;;;5.70;92.30;;;;;;4991854;28;20061;-70
2021/03/12 06:30:24;;;;;;;14.73;3.30;;;5.80;92.30;;;;;;4991704;28;20020;-70
2021/03/12 06:32:51;;;;;;;14.90;3.17;;;5.80;92.40;;;;;;4992412;28;20411;-69
2021/03/12 06:35:22;;;;;;;14.60;3.15;;;5.80;92.40;;;;;;4991316;28;20061;-69
2021/03/12 06:37:49;;;;;;;14.63;4.43;;;5.90;92.50;;;;;;4991085;28;20041;-70
2021/03/12 06:40:25;;;;;;;17.52;3.25;;;5.90;92.30;;;;;;4990828;28;20023;-70
2021/03/12 06:43:00;;;;;;;14.02;4.05;;;5.90;92.20;;;;;;4993370;28;20030;-68
2021/03/12 06:45:26;;;;;;;13.65;4.07;;;6.00;92.00;;;;;;4995661;28;20155;-69
2021/03/12 06:47:52;;;;;;;13.75;4.15;;;6.10;92.30;;;;;;4993888;28;20054;-68
2021/03/12 06:50:18;;;;;;;16.40;3.72;;;6.00;91.90;;;;;;4995627;28;20025;-69
2021/03/12 06:52:44;;;;;;;10.88;2.60;;;6.10;91.90;;;;;;4995096;28;20034;-69
2021/03/12 06:55:10;;;;;;;12.05;3.80;;;6.20;91.80;;;;;;4993950;28;20112;-71
2021/03/12 06:57:35;;;;;;;15.68;4.00;;;6.20;91.70;;;;;;4979326;28;20031;-70
2021/03/12 07:00:05;;;;;;;18.95;7.35;;;6.20;91.70;;;;;;4974937;28;20015;-70
2021/03/12 07:02:33;;;;;;;12.88;3.92;;;6.30;91.70;;;;;;4975110;28;20027;-71
2021/03/12 07:04:59;;;;;;;13.25;3.88;;;6.30;91.70;;;;;;4989843;28;20369;-70
2021/03/12 07:07:39;;;;;;;16.25;3.50;;;6.30;91.60;;;;;;4995268;28;20320;-70
2021/03/12 07:10:07;;;;;;;18.20;3.90;;;6.30;91.50;;;;;;4994629;28;20030;-70
2021/03/12 07:12:50;;;;;;;14.27;4.32;;;6.30;91.40;;;;;;4994932;28;20121;-70
2021/03/12 07:15:16;;;;;;;13.20;3.97;;;6.30;91.20;;;;;;4994883;28;20506;-71
2021/03/12 07:17:42;;;;;;;14.02;3.42;;;6.40;91.10;;;;;;4992553;28;20414;-70
2021/03/12 07:20:10;;;;;;;14.30;3.45;;;6.40;91.10;;;;;;4995239;28;20030;-67
2021/03/12 07:22:38;;;;;;;14.20;7.30;;;6.50;91.20;;;;;;4994813;28;20487;-71
2021/03/12 07:25:05;;;;;;;14.75;3.67;;;6.50;91.10;;;;;;4994638;28;20015;-70
2021/03/12 07:27:40;;;;;;;14.93;4.70;;;6.50;91.00;;;;;;4988005;28;20385;-71
2021/03/12 07:30:09;;;;;;;18.80;4.35;;;6.60;91.00;;;;;;4998154;28;20037;-71
2021/03/12 07:32:37;;;;;;;18.55;3.85;;;6.70;91.00;;;;;;4994284;28;20046;-71
2021/03/12 07:35:03;;;;;;;9.95;3.28;;;6.70;90.80;;;;;;5012177;28;20029;-71
2021/03/12 07:37:33;;;;;;;19.92;4.07;;;6.80;90.60;;;;;;5011833;28;20065;-73
2021/03/12 07:40:00;;;;;;;18.75;4.30;;;6.80;90.60;;;;;;5014386;28;20033;-72
2021/03/12 07:42:26;;;;;;;23.17;3.53;;;6.80;90.60;;;;;;5028915;28;20477;-71
2021/03/12 07:44:53;;;;;;;13.73;3.72;;;6.90;90.60;;;;;;4993678;28;20080;-71
2021/03/12 07:47:26;;;;;;;19.20;3.88;;;6.90;90.30;;;;;;4994179;28;20022;-71
2021/03/12 07:49:52;;;;;;;20.10;6.18;;;6.90;90.40;;;;;;4992954;28;20487;-72
2021/03/12 07:52:17;;;;;;;18.30;3.00;;;7.00;90.40;;;;;;4992337;28;20053;-74
2021/03/12 07:54:46;;;;;;;14.50;3.97;;;7.00;90.10;;;;;;4993520;28;20018;-81
2021/03/12 07:57:38;;;;;;;17.75;3.55;;;7.00;90.00;;;;;;4993829;28;20037;-72
2021/03/12 08:00:08;;;;;;;14.35;3.50;;;7.10;90.10;;;;;;4986050;28;20038;-70
2021/03/12 08:02:55;;;;;;;29.08;12.75;;;7.10;90.30;;;;;;4994425;28;20033;-79
2021/03/12 08:05:35;;;;;;;18.35;4.10;;;7.20;90.10;;;;;;4992728;28;20411;-72
2021/03/12 08:08:02;;;;;;;14.43;3.13;;;7.30;90.00;;;;;;4994566;28;20029;-76
2021/03/12 08:10:28;;;;;;;17.80;3.80;;;7.40;90.00;;;;;;4994214;28;20026;-80
2021/03/12 08:12:54;;;;;;;15.48;3.53;;;7.50;89.30;;;;;;4993999;28;20062;-78
2021/03/12 08:15:28;;;;;;;16.52;3.10;;;7.70;89.00;;;;;;4994128;28;20085;-82
2021/03/12 08:17:56;;;;;;;14.93;3.92;;;7.90;88.30;;;;;;4993235;28;20030;-77
2021/03/12 08:20:25;;;;;;;16.52;3.55;;;8.00;87.90;;;;;;4993186;28;20030;-74
2021/03/12 08:22:52;;;;;;;18.85;3.78;;;8.10;87.70;;;;;;4993794;28;20030;-73
2021/03/12 08:25:33;;;;;;;21.67;4.50;;;8.20;87.20;;;;;;4993246;28;20037;-76
2021/03/12 08:28:24;;;;;;;16.33;3.60;;;8.20;86.70;;;;;;4993337;28;20026;-77
2021/03/12 08:30:51;;;;;;;20.10;4.32;;;8.30;86.60;;;;;;4993270;28;20054;-74
2021/03/12 08:33:22;;;;;;;13.30;3.22;;;8.50;86.50;;;;;;4992668;28;20042;-74
2021/03/12 08:35:49;;;;;;;17.08;3.70;;;8.60;86.20;;;;;;4993588;28;20026;-74
2021/03/12 08:38:28;;;;;;;16.83;3.80;;;8.60;85.50;;;;;;4991862;28;20117;-74
2021/03/12 08:41:04;;;;;;;18.45;6.63;;;8.70;85.60;;;;;;4993132;28;20023;-73
2021/03/12 08:43:31;;;;;;;18.17;4.78;;;8.60;85.20;;;;;;4991789;28;20030;-72
2021/03/12 08:46:02;;;;;;;15.57;4.75;;;8.50;84.80;;;;;;4989287;28;20029;-72
2021/03/12 08:48:28;;;;;;;16.73;4.28;;;8.40;85.20;;;;;;4999715;28;20035;-73
2021/03/12 08:51:02;;;;;;;20.27;4.32;;;8.50;85.60;;;;;;4991748;28;20026;-73
2021/03/12 08:53:32;;;;;;;16.77;4.95;;;8.60;85.90;;;;;;4991268;28;20053;-72
2021/03/12 08:56:00;;;;;;;15.95;3.70;;;8.80;85.00;;;;;;4992078;28;20125;-71
2021/03/12 08:58:29;;;;;;;19.02;4.30;;;9.00;83.80;;;;;;4991696;28;20023;-72
2021/03/12 09:00:58;;;;;;;21.45;4.75;;;9.20;83.20;;;;;;4992279;28;20368;-73
2021/03/12 09:03:27;;;;;;;17.65;4.45;;;9.50;82.80;;;;;;4991680;28;20025;-71
2021/03/12 09:06:00;;;;;;;21.05;6.07;;;9.70;82.20;;;;;;4992590;28;20026;-86
2021/03/12 09:08:28;;;;;;;17.58;3.70;;;9.90;81.30;;;;;;4992865;28;20018;-82
2021/03/12 09:10:55;;;;;;;22.50;4.93;;;10.00;81.00;;;;;;4976175;28;20034;-88
2021/03/12 09:13:23;;;;;;;16.35;3.90;;;10.00;81.20;;;;;;4991392;28;20031;-80
2021/03/12 09:15:50;;;;;;;16.00;5.97;;;10.10;80.80;;;;;;4990589;28;20046;-82
2021/03/12 09:18:21;;;;;;;20.23;4.38;;;10.20;80.20;;;;;;4991446;28;20034;-77
2021/03/12 09:20:53;;;;;;;20.50;4.75;;;10.30;79.40;;;;;;4993232;28;20029;-79
2021/03/12 09:23:32;;;;;;;18.98;4.32;;;10.40;79.40;;;;;;5002720;28;20025;-71
2021/03/12 09:25:58;;;;;;;18.75;4.80;;;10.60;79.00;;;;;;4992251;28;20030;-78
2021/03/12 09:28:29;;;;;;;18.48;4.63;;;10.60;77.90;;;;;;4992281;28;20114;-77
2021/03/12 09:30:55;;;;;;;19.87;5.10;;;10.60;77.90;;;;;;4989905;28;20497;-78
2021/03/12 09:33:38;;;;;;;18.17;4.47;;;10.60;78.30;;;;;;4992239;28;20034;-84
2021/03/12 09:36:22;;;;;;;19.23;4.63;;;10.50;77.90;;;;;;4992287;28;20522;-85
2021/03/12 09:38:48;;;;;;;18.17;4.25;;;10.40;78.00;;;;;;4991436;28;20034;-76
2021/03/12 09:41:20;;;;;;;19.23;4.70;;;10.40;78.80;;;;;;4995205;28;20023;-80
2021/03/12 09:44:01;;;;;;;;;;;10.20;78.50;;;;;;4993820;28;20019;-79
2021/03/12 09:46:35;;;;;;;15.60;3.83;;;10.10;78.50;;;;;;4991311;28;19965;-78
2021/03/12 09:49:06;;;;;;;14.93;4.35;;;10.10;79.00;;;;;;4992395;28;20030;-86
2021/03/12 09:51:32;;;;;;;20.30;4.60;;;10.10;79.00;;;;;;4993189;28;20057;-78
2021/03/12 09:53:59;;;;;;;15.52;4.10;;;10.10;79.40;;;;;;4992339;28;20038;-79
2021/03/12 09:56:25;;;;;;;13.40;4.10;;;10.10;79.10;;;;;;4990702;28;20415;-78
2021/03/12 09:58:51;;;;;;;18.60;3.97;;;10.10;79.00;;;;;;4989264;28;20034;-81
2021/03/12 10:01:20;;;;;;;21.95;4.75;;;10.10;79.70;;;;;;4991304;28;20031;-80
2021/03/12 10:03:46;;;;;;;12.35;3.50;;;10.10;79.40;;;;;;4992221;28;20026;-88
2021/03/12 10:06:14;;;;;;;18.65;4.75;;;10.10;78.70;;;;;;4992063;28;20026;-84
2021/03/12 10:09:06;;;;;;;16.85;3.92;;;10.20;78.60;;;;;;4992230;28;20034;-81
2021/03/12 10:11:48;;;;;;;19.52;4.20;;;10.10;78.50;;;;;;4992352;28;20038;-82
2021/03/12 10:14:50;;;;;;;22.02;5.00;;;10.10;78.70;;;;;;4991718;28;20022;-77
2021/03/12 10:17:23;;;;;;;16.95;3.92;;;10.10;78.70;;;;;;4916069;29;20416;-79
2021/03/12 10:19:51;;;;;;;13.80;3.55;;;10.00;78.80;;;;;;4977346;28;20042;-73
2021/03/12 10:22:20;;;;;;;16.33;3.58;;;10.10;79.10;;;;;;4995751;28;20038;-76
2021/03/12 10:25:05;;;;;;;17.88;4.00;;;10.10;79.40;;;;;;4996239;28;20081;-77
2021/03/12 10:27:33;;;;;;;13.52;3.63;;;10.20;79.40;;;;;;4995530;28;20031;-76
2021/03/12 10:29:58;;;;;;;12.85;3.65;;;10.20;78.60;;;;;;4996023;28;20033;-74
2021/03/12 10:32:26;;;;;;;18.65;4.25;;;10.10;78.40;;;;;;4994008;28;20117;-70
2021/03/12 10:34:54;;;;;;;12.35;3.85;;;9.90;79.40;;;;;;4994945;28;20022;-72
2021/03/12 10:37:23;;;;;;;19.55;5.05;;;9.90;80.40;;;;;;4994394;28;20061;-71
2021/03/12 10:39:51;;;;;;;16.88;4.00;;;9.80;81.10;;;;;;4993882;28;20026;-73
2021/03/12 10:42:25;;;;;;;21.20;3.70;;;9.70;81.80;;;;;;4994407;28;20057;-73
2021/03/12 10:44:55;;;;;;;15.10;3.95;;;9.60;82.60;;;;;;4995755;28;20062;-72
2021/03/12 10:47:21;;;;;;;15.80;3.75;;;9.50;83.40;;;;;;4994825;28;20034;-72
2021/03/12 10:49:47;;;;;;;18.48;3.90;;;9.40;84.40;;;;;;4995706;28;20428;-73
2021/03/12 10:52:22;;;;;;;17.63;4.28;;;9.40;84.80;;;;;;4995493;28;20034;-72
2021/03/12 10:54:47;;;;;;;18.00;4.28;;;9.50;84.80;;;;;;4995166;28;20050;-71
2021/03/12 10:57:13;;;;;;;18.45;4.75;;;9.50;84.80;;;;;;4995301;28;20049;-71
2021/03/12 10:59:56;;;;;;;17.80;3.70;;;9.60;84.40;;;;;;4994434;28;20430;-72
2021/03/12 11:02:34;;;;;;;14.93;3.90;;;9.70;84.50;;;;;;4994666;28;20105;-71
2021/03/12 11:05:00;;;;;;;18.65;3.47;;;9.60;84.50;;;;;;4995883;28;20022;-72
2021/03/12 11:07:26;;;;;;;16.92;4.03;;;9.60;84.90;;;;;;4994948;28;20084;-72
2021/03/12 11:09:52;;;;;;;17.40;3.50;;;9.50;85.10;;;;;;4994815;28;20050;-72
2021/03/12 11:12:17;;;;;;;17.85;3.78;;;9.40;85.90;;;;;;4993317;28;20041;-72
2021/03/12 11:14:43;;;;;;;17.77;4.85;;;9.30;86.20;;;;;;4995120;28;20411;-72
2021/03/12 11:17:08;;;;;;;11.80;3.30;;;9.30;86.50;;;;;;4994254;28;20034;-72
2021/03/12 11:19:34;;;;;;;15.80;3.78;;;9.20;87.00;;;;;;4995277;28;20026;-72
2021/03/12 11:21:59;;;;;;;11.02;3.55;;;9.10;87.30;;;;;;4993246;28;20046;-71
2021/03/12 11:24:25;;;;;;;14.38;3.50;;;9.10;87.40;;;;;;4993490;28;20023;-71
2021/03/12 11:26:51;;;;;;;17.30;4.25;;;9.10;87.70;;;;;;4995016;28;20102;-71
2021/03/12 11:29:16;;;;;;;16.40;4.57;;;9.10;88.40;;;;;;4993004;28;20058;-71
2021/03/12 11:31:42;;;;;;;19.45;4.30;;;9.20;88.10;;;;;;4994696;28;20376;-71
2021/03/12 11:34:09;;;;;;;25.80;4.25;;;9.20;88.50;;;;;;4993779;28;20025;-72
2021/03/12 11:36:35;;;;;;;18.77;4.32;;;9.20;88.80;;;;;;4994218;28;20368;-72
2021/03/12 11:39:00;;;;;;;21.35;6.97;;;9.30;88.10;;;;;;4994865;28;20026;-74
2021/03/12 11:41:26;;;;;;;17.73;4.22;;;9.40;87.80;;;;;;4994402;28;20030;-71
2021/03/12 11:43:51;;;;;;;21.60;4.75;;;9.50;87.80;;;;;;4993851;28;20030;-71
2021/03/12 11:46:17;;;;;;;18.80;4.38;;;9.60;86.60;;;;;;4993183;28;20092;-72
2021/03/12 11:48:43;;;;;;;21.55;4.63;;;9.70;86.80;;;;;;4993173;28;20549;-72
2021/03/12 11:51:09;;;;;;;13.38;3.88;;;9.80;86.60;;;;;;4993492;28;20026;-73
2021/03/12 11:53:35;;;;;;;20.70;5.65;;;9.80;86.00;;;;;;4993288;28;20022;-72
2021/03/12 11:56:00;;;;;;;15.80;4.18;;;9.80;86.00;;;;;;4994508;28;20022;-72
2021/03/12 11:58:26;;;;;;;18.55;4.75;;;9.90;85.50;;;;;;4993456;28;20375;-71
2021/03/12 12:00:51;;;;;;;14.73;4.03;;;9.90;84.40;;;;;;4994343;28;20093;-71
2021/03/12 12:03:17;;;;;;;12.05;3.88;;;9.90;84.50;;;;;;4993903;28;20039;-71
2021/03/12 12:05:43;;;;;;;13.85;4.30;;;9.90;84.10;;;;;;4993478;28;20097;-71
2021/03/12 12:08:08;;;;;;;16.50;4.22;;;9.90;84.30;;;;;;4993547;28;20475;-72
2021/03/12 12:10:34;;;;;;;18.05;4.13;;;10.00;83.80;;;;;;4994128;28;20023;-71
2021/03/12 12:13:00;;;;;;;13.27;4.65;;;10.10;83.70;;;;;;4993139;28;20030;-72
2021/03/12 12:15:26;;;;;;;15.82;3.85;;;10.30;83.50;;;;;;4993602;28;20108;-72
2021/03/12 12:17:59;;;;;;;12.32;3.67;;;10.50;81.90;;;;;;4993938;28;20037;-72
2021/03/12 12:20:24;;;;;;;15.13;3.67;;;10.60;81.10;;;;;;4991635;28;20022;-72
2021/03/12 12:22:50;;;;;;;12.68;3.15;;;10.80;80.10;;;;;;4993824;28;20102;-72
2021/03/12 12:25:17;;;;;;;13.75;4.22;;;10.90;79.60;;;;;;4991609;28;20073;-73
2021/03/12 12:27:43;;;;;;;12.63;3.38;;;11.00;78.80;;;;;;4993778;28;20027;-72
2021/03/12 12:30:10;;;;;;;14.10;3.30;;;11.00;78.10;;;;;;4993859;28;20345;-72
2021/03/12 12:32:36;;;;;;;11.38;3.10;;;11.00;78.30;;;;;;4992990;28;20034;-73
2021/03/12 12:35:04;;;;;;;11.80;3.15;;;10.90;78.10;;;;;;4992555;28;20467;-73
2021/03/12 12:37:30;;;;;;;12.25;2.97;;;10.80;78.30;;;;;;4993204;28;20022;-75
2021/03/12 12:39:55;;;;;;;14.95;3.10;;;10.70;78.50;;;;;;4992664;28;20537;-72
2021/03/12 12:42:21;;;;;;;12.13;3.17;;;10.70;78.80;;;;;;4993110;28;20058;-73
2021/03/12 12:44:46;;;;;;;13.50;4.53;;;10.60;78.60;;;;;;4993809;28;20105;-72
2021/03/12 12:47:12;;;;;;;10.85;2.88;;;10.60;78.40;;;;;;4992305;28;20034;-72
2021/03/12 12:49:38;;;;;;;14.77;3.08;;;10.50;77.90;;;;;;4992001;28;20053;-72
2021/03/12 12:52:04;;;;;;;13.40;2.78;;;10.40;78.30;;;;;;4993364;28;20042;-73